createdAt,value
2023-03-17T00:00:36.669Z,5.33
2023-03-17T00:02:43.003Z,5.35
2023-03-17T00:04:50.594Z,5.35
2023-03-17T00:06:56.755Z,5.35
2023-03-17T00:09:02.175Z,5.31
2023-03-17T00:11:14.438Z,5.31
2023-03-17T00:13:19.987Z,5.30
2023-03-17T00:15:25.763Z,5.31
2023-03-17T00:17:30.592Z,5.32
2023-03-17T00:19:38.025Z,5.30
2023-03-17T00:21:46.128Z,5.33
2023-03-17T00:23:53.762Z,5.36
2023-03-17T00:25:58.841Z,5.35
2023-03-17T00:28:07.891Z,5.37
2023-03-17T00:30:14.967Z,5.36
2023-03-17T00:32:23.390Z,5.35
2023-03-17T00:34:29.935Z,5.36
2023-03-17T00:36:37.514Z,5.39
2023-03-17T00:38:46.111Z,5.37
2023-03-17T00:40:51.346Z,5.40
2023-03-17T00:42:56.247Z,5.33
2023-03-17T00:45:01.409Z,5.33
2023-03-17T00:47:06.398Z,5.28
2023-03-17T00:51:22.083Z,5.29
2023-03-17T00:53:27.209Z,5.29
2023-03-17T00:55:34.440Z,5.30
2023-03-17T00:57:40.199Z,5.34
2023-03-17T00:59:45.526Z,5.34
2023-03-17T01:01:50.524Z,5.36
2023-03-17T01:03:55.423Z,5.37
2023-03-17T01:06:00.288Z,5.40
2023-03-17T01:08:05.476Z,5.42
2023-03-17T01:10:17.065Z,5.37
2023-03-17T01:12:24.455Z,5.41
2023-03-17T01:14:29.398Z,5.38
2023-03-17T01:16:34.477Z,5.35
2023-03-17T01:18:39.796Z,5.34
2023-03-17T01:20:46.262Z,5.35
2023-03-17T01:22:51.564Z,5.35
2023-03-17T01:24:56.754Z,5.35
2023-03-17T01:27:01.797Z,5.35
2023-03-17T01:29:09.456Z,5.26
2023-03-17T01:31:14.345Z,5.20
2023-03-17T01:33:19.248Z,5.19
2023-03-17T01:35:24.497Z,5.17
2023-03-17T01:37:29.784Z,5.20
2023-03-17T01:39:34.456Z,5.13
2023-03-17T01:41:40.476Z,5.10
2023-03-17T01:43:45.377Z,5.11
2023-03-17T01:46:29.386Z,5.15
2023-03-17T01:48:40.979Z,5.11
2023-03-17T01:50:49.056Z,5.12
2023-03-17T01:52:54.272Z,5.08
2023-03-17T01:55:04.426Z,5.04
2023-03-17T01:57:16.173Z,5.06
2023-03-17T01:59:25.562Z,5.08
2023-03-17T02:01:38.783Z,5.06
2023-03-17T02:03:47.252Z,5.01
2023-03-17T02:05:53.858Z,4.99
2023-03-17T02:07:59.798Z,5.02
2023-03-17T02:10:08.863Z,5.05
2023-03-17T02:12:17.009Z,5.03
2023-03-17T02:14:21.894Z,4.99
2023-03-17T02:16:27.876Z,4.97
2023-03-17T02:18:35.517Z,4.95
2023-03-17T02:21:19.148Z,4.94
2023-03-17T02:23:27.336Z,4.95
2023-03-17T02:25:33.450Z,4.99
2023-03-17T02:27:44.339Z,5.00
2023-03-17T02:29:50.985Z,5.04
2023-03-17T02:31:56.007Z,5.03
2023-03-17T02:34:00.984Z,5.02
2023-03-17T02:36:06.078Z,5.02
2023-03-17T02:38:11.031Z,5.07
2023-03-17T02:40:18.807Z,5.11
2023-03-17T02:42:24.046Z,5.11
2023-03-17T02:44:28.744Z,5.11
2023-03-17T02:46:33.577Z,5.10
2023-03-17T02:48:39.333Z,5.06
2023-03-17T02:50:44.280Z,5.08
2023-03-17T02:52:49.072Z,5.09
2023-03-17T02:54:57.058Z,5.07
2023-03-17T02:57:05.030Z,5.09
2023-03-17T02:59:10.211Z,5.11
2023-03-17T03:01:15.777Z,5.11
2023-03-17T03:03:20.589Z,5.12
2023-03-17T03:05:25.498Z,5.11
2023-03-17T03:07:30.288Z,5.08
2023-03-17T03:09:36.815Z,5.05
2023-03-17T03:11:41.668Z,5.04
2023-03-17T03:13:49.221Z,5.06
2023-03-17T03:15:54.026Z,5.03
2023-03-17T03:17:58.879Z,4.98
2023-03-17T03:20:03.687Z,4.97
2023-03-17T03:22:09.107Z,4.95
2023-03-17T03:24:13.911Z,4.96
2023-03-17T03:26:18.920Z,4.94
2023-03-17T03:28:23.736Z,4.91
2023-03-17T03:30:33.680Z,4.91
2023-03-17T03:32:38.502Z,4.88
2023-03-17T03:34:43.586Z,4.84
2023-03-17T03:36:48.625Z,4.83
2023-03-17T03:38:53.424Z,4.79
2023-03-17T03:40:58.210Z,4.75
2023-03-17T03:43:16.128Z,4.78
2023-03-17T03:45:27.040Z,4.76
2023-03-17T03:47:34.488Z,4.74
2023-03-17T03:49:39.298Z,4.69
2023-03-17T03:51:44.362Z,4.69
2023-03-17T03:53:49.744Z,4.69
2023-03-17T03:55:54.604Z,4.71
2023-03-17T03:57:59.502Z,4.69
2023-03-17T04:00:05.247Z,4.76
2023-03-17T04:02:17.209Z,4.80
2023-03-17T04:04:24.705Z,4.76
2023-03-17T04:06:29.620Z,4.74
2023-03-17T04:08:34.669Z,4.78
2023-03-17T04:10:39.729Z,4.78
2023-03-17T04:12:45.898Z,4.77
2023-03-17T04:14:50.741Z,4.80
2023-03-17T04:16:55.869Z,4.79
2023-03-17T04:19:00.961Z,4.78
2023-03-17T04:21:08.501Z,4.75
2023-03-17T04:23:13.263Z,4.69
2023-03-17T04:25:18.809Z,4.67
2023-03-17T04:27:24.111Z,4.71
2023-03-17T04:29:28.762Z,4.67
2023-03-17T04:31:33.758Z,4.63
2023-03-17T04:33:38.605Z,4.57
2023-03-17T04:35:43.643Z,4.60
2023-03-17T04:37:51.371Z,4.60
2023-03-17T04:39:56.372Z,4.59
2023-03-17T04:42:01.519Z,4.60
2023-03-17T04:44:06.386Z,4.58
2023-03-17T04:46:11.842Z,4.57
2023-03-17T04:48:16.945Z,4.60
2023-03-17T04:50:22.177Z,4.58
2023-03-17T04:52:26.780Z,4.50
2023-03-17T04:54:34.203Z,4.56
2023-03-17T04:56:39.023Z,4.55
2023-03-17T04:58:43.906Z,4.54
2023-03-17T05:00:48.883Z,4.55
2023-03-17T05:02:53.600Z,4.48
2023-03-17T05:04:58.366Z,4.49
2023-03-17T05:07:03.189Z,4.49
2023-03-17T05:09:08.758Z,4.48
2023-03-17T05:11:17.381Z,4.47
2023-03-17T05:13:22.133Z,4.47
2023-03-17T05:15:27.237Z,4.43
2023-03-17T05:17:31.982Z,4.43
2023-03-17T05:19:36.814Z,4.40
2023-03-17T05:21:41.644Z,4.35
2023-03-17T05:23:46.494Z,4.39
2023-03-17T05:25:51.722Z,4.35
2023-03-17T05:27:59.221Z,4.32
2023-03-17T05:30:04.113Z,4.28
2023-03-17T05:32:09.169Z,4.32
2023-03-17T05:34:14.055Z,4.31
2023-03-17T05:36:18.883Z,4.31
2023-03-17T05:38:23.696Z,4.30
2023-03-17T05:40:28.916Z,4.27
2023-03-17T05:42:33.892Z,4.27
2023-03-17T05:44:41.324Z,4.26
2023-03-17T05:46:46.131Z,4.22
2023-03-17T05:48:51.006Z,4.24
2023-03-17T05:50:55.873Z,4.20
2023-03-17T05:53:01.044Z,4.25
2023-03-17T05:55:05.799Z,4.16
2023-03-17T05:57:10.882Z,4.15
2023-03-17T05:59:18.520Z,4.13
2023-03-17T06:01:25.948Z,4.13
2023-03-17T06:03:31.101Z,4.16
2023-03-17T06:05:38.843Z,4.16
2023-03-17T06:07:54.022Z,4.20
2023-03-17T06:10:00.539Z,4.16
2023-03-17T06:12:05.463Z,4.20
2023-03-17T06:14:10.498Z,4.22
2023-03-17T06:16:15.802Z,4.30
2023-03-17T06:18:23.252Z,4.35
2023-03-17T06:20:28.562Z,4.41
2023-03-17T06:22:33.370Z,4.36
2023-03-17T06:24:38.589Z,4.45
2023-03-17T06:26:43.593Z,4.48
2023-03-17T06:28:48.370Z,4.52
2023-03-17T06:30:53.379Z,4.57
2023-03-17T06:32:58.193Z,4.64
2023-03-17T06:35:05.937Z,4.64
2023-03-17T06:37:10.810Z,4.59
2023-03-17T06:39:16.800Z,4.68
2023-03-17T06:41:21.610Z,4.69
2023-03-17T06:43:26.536Z,4.74
2023-03-17T06:45:33.093Z,4.74
2023-03-17T06:47:38.379Z,4.75
2023-03-17T06:49:43.219Z,4.82
2023-03-17T06:51:50.596Z,4.86
2023-03-17T06:53:55.470Z,4.87
2023-03-17T06:56:00.559Z,4.91
2023-03-17T06:58:05.900Z,4.95
2023-03-17T07:00:14.240Z,4.98
2023-03-17T07:02:19.561Z,4.98
2023-03-17T07:04:24.481Z,4.95
2023-03-17T07:06:29.428Z,4.94
2023-03-17T07:08:36.859Z,4.96
2023-03-17T07:10:44.259Z,4.98
2023-03-17T07:12:49.222Z,5.01
2023-03-17T07:14:54.290Z,5.05
2023-03-17T07:16:59.050Z,5.10
2023-03-17T07:19:04.408Z,5.11
2023-03-17T07:21:09.525Z,5.16
2023-03-17T07:23:18.148Z,5.22
2023-03-17T07:25:25.770Z,5.27
2023-03-17T07:27:33.585Z,5.30
2023-03-17T07:29:39.175Z,5.34
2023-03-17T07:31:44.327Z,5.35
2023-03-17T07:33:49.191Z,5.43
2023-03-17T07:35:54.846Z,5.49
2023-03-17T07:38:00.054Z,5.55
2023-03-17T07:40:09.623Z,5.67
2023-03-17T07:42:18.962Z,5.72
2023-03-17T07:44:23.851Z,5.83
2023-03-17T07:46:29.225Z,5.95
2023-03-17T07:48:34.574Z,6.04
2023-03-17T07:50:40.348Z,6.16
2023-03-17T07:52:45.178Z,6.23
2023-03-17T07:54:51.677Z,6.29
2023-03-17T07:56:56.570Z,6.37
2023-03-17T07:59:04.112Z,6.45
2023-03-17T08:01:09.947Z,6.57
2023-03-17T08:03:14.850Z,6.63
2023-03-17T08:05:19.972Z,6.68
2023-03-17T08:07:24.793Z,6.77
2023-03-17T08:09:29.652Z,6.89
2023-03-17T08:11:34.422Z,7.00
2023-03-17T08:13:39.221Z,7.13
2023-03-17T08:15:47.451Z,7.30
2023-03-17T08:17:52.364Z,7.39
2023-03-17T08:19:57.157Z,7.52
2023-03-17T08:22:02.055Z,7.68
2023-03-17T08:24:07.253Z,7.85
2023-03-17T08:26:14.300Z,7.99
2023-03-17T08:28:19.264Z,8.16
2023-03-17T08:30:24.639Z,8.37
2023-03-17T08:32:32.157Z,8.52
2023-03-17T08:34:37.584Z,8.66
2023-03-17T08:36:42.110Z,8.87
2023-03-17T08:38:49.014Z,9.12
2023-03-17T08:40:53.785Z,9.34
2023-03-17T08:42:58.625Z,9.73
2023-03-17T08:45:04.460Z,10.04
2023-03-17T08:47:09.488Z,10.23
2023-03-17T08:49:17.147Z,10.27
2023-03-17T08:51:24.553Z,10.23
2023-03-17T08:53:30.023Z,10.21
2023-03-17T08:55:34.583Z,10.09
2023-03-17T08:57:39.381Z,10.06
2023-03-17T08:59:44.173Z,9.93
2023-03-17T09:01:49.035Z,9.88
2023-03-17T09:03:54.751Z,9.89
2023-03-17T09:06:04.740Z,9.94
2023-03-17T09:08:09.533Z,9.93
2023-03-17T09:10:16.945Z,9.99
2023-03-17T09:12:22.306Z,10.01
2023-03-17T09:14:27.628Z,9.93
2023-03-17T09:16:34.185Z,9.87
2023-03-17T09:18:39.587Z,9.95
2023-03-17T09:20:44.186Z,9.95
2023-03-17T09:22:51.651Z,10.03
2023-03-17T09:24:56.678Z,10.08
2023-03-17T09:27:01.508Z,10.20
2023-03-17T09:29:07.326Z,10.28
2023-03-17T09:31:15.918Z,10.40
2023-03-17T09:33:21.130Z,10.38
2023-03-17T09:35:26.323Z,10.47
2023-03-17T09:37:32.993Z,10.53
2023-03-17T09:39:40.404Z,10.66
2023-03-17T09:41:57.784Z,10.77
2023-03-17T09:44:11.295Z,10.83
2023-03-17T09:46:32.741Z,11.01
2023-03-17T09:48:49.866Z,11.12
2023-03-17T09:50:59.078Z,11.24
2023-03-17T09:53:05.823Z,11.38
2023-03-17T09:55:26.416Z,11.51
2023-03-17T09:57:35.697Z,11.54
2023-03-17T09:59:45.162Z,11.65
2023-03-17T10:01:50.416Z,11.76
2023-03-17T10:03:55.894Z,11.88
2023-03-17T10:06:18.133Z,12.00
2023-03-17T10:08:31.584Z,12.03
2023-03-17T10:10:48.472Z,12.11
2023-03-17T10:13:05.668Z,12.20
2023-03-17T10:15:21.023Z,12.22
2023-03-17T10:17:29.105Z,12.23
2023-03-17T10:19:43.192Z,12.37
2023-03-17T10:21:55.833Z,12.43
2023-03-17T10:24:00.823Z,12.49
2023-03-17T10:26:11.563Z,12.49
2023-03-17T10:28:27.667Z,12.50
2023-03-17T10:30:36.015Z,12.59
2023-03-17T10:32:42.757Z,12.62
2023-03-17T10:34:49.359Z,12.68
2023-03-17T10:36:58.138Z,12.75
2023-03-17T10:39:05.508Z,12.77
2023-03-17T10:41:16.862Z,12.82
2023-03-17T10:43:24.405Z,12.93
2023-03-17T10:45:32.602Z,13.02
2023-03-17T10:47:40.852Z,13.10
2023-03-17T10:49:47.125Z,13.12
2023-03-17T10:51:55.301Z,13.22
2023-03-17T10:54:04.012Z,13.27
2023-03-17T10:56:14.962Z,13.44
2023-03-17T10:58:22.501Z,13.46
2023-03-17T11:00:30.466Z,13.50
2023-03-17T11:02:45.917Z,13.61
2023-03-17T11:04:51.197Z,13.72
2023-03-17T11:06:59.310Z,13.81
2023-03-17T11:09:11.108Z,13.91
2023-03-17T11:11:29.886Z,13.97
2023-03-17T11:13:34.994Z,13.99
2023-03-17T11:15:44.237Z,14.04
2023-03-17T11:17:57.920Z,14.09
2023-03-17T11:20:18.380Z,14.21
2023-03-17T11:22:30.956Z,14.30
2023-03-17T11:24:46.785Z,14.38
2023-03-17T11:27:02.365Z,14.46
2023-03-17T11:29:32.744Z,14.49
2023-03-17T11:31:44.692Z,14.64
2023-03-17T11:33:59.289Z,14.79
2023-03-17T11:36:12.496Z,14.88
2023-03-17T11:38:24.824Z,14.93
2023-03-17T11:40:34.848Z,14.99
2023-03-17T11:42:51.370Z,15.12
2023-03-17T11:45:16.471Z,15.17
2023-03-17T11:47:38.656Z,15.18
2023-03-17T11:49:47.260Z,15.19
2023-03-17T11:52:02.028Z,15.21
2023-03-17T11:54:14.060Z,15.24
2023-03-17T11:56:24.151Z,15.36
2023-03-17T11:58:38.863Z,15.49
2023-03-17T12:00:50.860Z,15.66
2023-03-17T12:03:01.205Z,15.76
2023-03-17T12:05:10.982Z,15.89
2023-03-17T12:07:23.508Z,15.93
2023-03-17T12:09:33.823Z,16.00
2023-03-17T12:11:43.402Z,16.03
2023-03-17T12:13:54.479Z,15.96
2023-03-17T12:16:04.455Z,15.97
2023-03-17T12:18:16.226Z,15.98
2023-03-17T12:20:24.585Z,15.93
2023-03-17T12:22:33.899Z,15.99
2023-03-17T12:24:43.802Z,15.99
2023-03-17T12:26:59.034Z,16.03
2023-03-17T12:29:12.479Z,16.10
2023-03-17T12:31:24.078Z,16.10
2023-03-17T12:33:33.652Z,16.15
2023-03-17T12:35:39.676Z,16.18
2023-03-17T12:37:44.568Z,16.25
2023-03-17T12:39:58.729Z,16.30
2023-03-17T12:42:19.447Z,16.36
2023-03-17T12:44:43.047Z,16.47
2023-03-17T12:47:13.293Z,16.50
2023-03-17T12:49:45.159Z,16.55
2023-03-17T12:52:10.316Z,16.59
2023-03-17T12:54:18.165Z,16.61
2023-03-17T12:56:27.582Z,16.70
2023-03-17T12:58:38.063Z,16.74
2023-03-17T13:00:59.504Z,16.71
2023-03-17T13:03:20.143Z,16.69
2023-03-17T13:05:37.963Z,16.66
2023-03-17T13:07:49.708Z,16.66
2023-03-17T13:10:18.475Z,16.66
2023-03-17T13:12:57.809Z,16.63
2023-03-17T13:15:02.947Z,16.63
2023-03-17T13:17:34.156Z,16.68
2023-03-17T13:19:57.602Z,16.71
2023-03-17T13:22:28.105Z,16.75
2023-03-17T13:24:47.364Z,16.85
2023-03-17T13:27:03.807Z,16.95
2023-03-17T13:29:27.370Z,17.01
2023-03-17T13:31:39.484Z,17.02
2023-03-17T13:33:48.703Z,17.00
2023-03-17T13:36:16.481Z,17.09
2023-03-17T13:38:46.794Z,17.13
2023-03-17T13:41:08.548Z,17.15
2023-03-17T13:43:32.680Z,17.17
2023-03-17T13:45:41.448Z,17.20
2023-03-17T13:47:47.326Z,17.17
2023-03-17T13:49:59.470Z,17.27
2023-03-17T13:52:11.029Z,17.26
2023-03-17T13:54:24.686Z,17.37
2023-03-17T13:56:48.382Z,17.36
2023-03-17T13:58:56.084Z,17.46
2023-03-17T14:01:06.808Z,17.48
2023-03-17T14:03:22.502Z,17.49
2023-03-17T14:05:34.895Z,17.57
2023-03-17T14:07:48.117Z,17.66
2023-03-17T14:09:55.904Z,17.69
2023-03-17T14:12:03.177Z,17.67
2023-03-17T14:14:32.024Z,17.69
2023-03-17T14:16:44.841Z,17.70
2023-03-17T14:18:52.955Z,17.70
2023-03-17T14:21:08.811Z,17.75
2023-03-17T14:23:14.742Z,17.80
2023-03-17T14:25:22.420Z,17.82
2023-03-17T14:27:29.460Z,17.85
2023-03-17T14:29:39.490Z,17.86
2023-03-17T14:31:48.017Z,17.87
2023-03-17T14:33:55.750Z,17.85
2023-03-17T14:36:05.258Z,17.87
2023-03-17T14:38:20.691Z,17.87
2023-03-17T14:40:27.969Z,17.92
2023-03-17T14:42:34.343Z,18.00
2023-03-17T14:44:40.418Z,18.05
2023-03-17T14:46:45.389Z,18.09
2023-03-17T14:48:52.771Z,18.10
2023-03-17T14:51:05.282Z,18.17
2023-03-17T14:53:14.235Z,18.17
2023-03-17T14:55:20.010Z,18.09
2023-03-17T14:57:29.728Z,18.04
2023-03-17T14:59:37.300Z,17.98
2023-03-17T15:01:47.470Z,17.97
2023-03-17T15:03:59.532Z,17.95
2023-03-17T15:06:11.035Z,17.91
2023-03-17T15:08:41.049Z,17.85
2023-03-17T15:10:47.574Z,17.85
2023-03-17T15:12:52.811Z,17.81
2023-03-17T15:15:03.564Z,17.82
2023-03-17T15:17:16.998Z,17.75
2023-03-17T15:19:27.671Z,17.77
2023-03-17T15:21:41.210Z,17.78
2023-03-17T15:23:48.887Z,17.78
2023-03-17T15:25:56.002Z,17.74
2023-03-17T15:28:01.300Z,17.68
2023-03-17T15:30:06.597Z,17.70
2023-03-17T15:32:19.394Z,17.69
2023-03-17T15:34:24.235Z,17.60
2023-03-17T15:36:32.857Z,17.52
2023-03-17T15:38:39.101Z,17.47
2023-03-17T15:40:46.589Z,17.33
2023-03-17T15:42:51.455Z,17.32
2023-03-17T15:44:56.703Z,17.28
2023-03-17T15:47:01.247Z,17.15
2023-03-17T15:49:13.497Z,17.10
2023-03-17T15:51:19.142Z,17.13
2023-03-17T15:53:24.061Z,17.08
2023-03-17T15:55:31.702Z,17.06
2023-03-17T15:57:39.164Z,17.03
2023-03-17T15:59:43.993Z,17.00
2023-03-17T16:01:48.906Z,16.98
2023-03-17T16:03:53.939Z,16.90
2023-03-17T16:05:58.605Z,16.83
2023-03-17T16:08:03.543Z,16.81
2023-03-17T16:10:18.705Z,16.84
2023-03-17T16:12:23.601Z,16.81
2023-03-17T16:14:31.027Z,16.78
2023-03-17T16:16:40.914Z,16.74
2023-03-17T16:18:47.023Z,16.65
2023-03-17T16:20:53.864Z,16.60
2023-03-17T16:23:01.227Z,16.51
2023-03-17T16:25:06.819Z,16.42
2023-03-17T16:27:17.235Z,16.35
2023-03-17T16:29:27.807Z,16.31
2023-03-17T16:31:45.169Z,16.25
2023-03-17T16:33:50.306Z,16.22
2023-03-17T16:35:55.980Z,16.12
2023-03-17T16:38:00.921Z,16.11
2023-03-17T16:40:06.363Z,16.10
2023-03-17T16:42:21.079Z,16.08
2023-03-17T16:44:26.050Z,16.02
2023-03-17T16:46:35.502Z,16.01
2023-03-17T16:48:43.163Z,15.96
2023-03-17T16:50:48.045Z,15.91
2023-03-17T16:52:52.890Z,15.84
2023-03-17T16:54:57.660Z,15.77
2023-03-17T16:57:02.823Z,15.75
2023-03-17T16:59:09.608Z,15.73
2023-03-17T17:01:18.100Z,15.70
2023-03-17T17:03:23.050Z,15.67
2023-03-17T17:05:33.953Z,15.67
2023-03-17T17:07:38.741Z,15.65
2023-03-17T17:09:43.639Z,15.59
2023-03-17T17:11:48.531Z,15.51
2023-03-17T17:13:53.404Z,15.49
2023-03-17T17:15:58.919Z,15.44
2023-03-17T17:18:06.209Z,15.42
2023-03-17T17:20:17.683Z,15.40
2023-03-17T17:22:25.183Z,15.39
2023-03-17T17:24:30.061Z,15.35
2023-03-17T17:26:34.880Z,15.29
2023-03-17T17:28:40.510Z,15.26
2023-03-17T17:31:03.002Z,15.20
2023-03-17T17:33:09.827Z,15.10
2023-03-17T17:35:17.564Z,15.04
2023-03-17T17:37:24.920Z,15.02
2023-03-17T17:40:21.701Z,14.92
2023-03-17T17:42:32.015Z,14.86
2023-03-17T17:44:39.312Z,14.84
2023-03-17T17:46:50.752Z,14.84
2023-03-17T17:48:58.932Z,14.84
2023-03-17T17:51:03.789Z,14.76
2023-03-17T17:53:12.416Z,14.71
2023-03-17T17:55:17.369Z,14.66
2023-03-17T17:57:22.224Z,14.61
2023-03-17T17:59:55.995Z,14.55
2023-03-17T18:02:01.226Z,14.50
2023-03-17T18:04:06.117Z,14.46
2023-03-17T18:06:11.790Z,14.40
2023-03-17T18:08:19.448Z,14.38
2023-03-17T18:10:26.870Z,14.37
2023-03-17T18:12:34.212Z,14.33
2023-03-17T18:14:39.091Z,14.27
2023-03-17T18:16:44.214Z,14.26
2023-03-17T18:18:52.904Z,14.23
2023-03-17T18:20:57.769Z,14.21
2023-03-17T18:23:03.356Z,14.18
2023-03-17T18:25:12.543Z,14.17
2023-03-17T18:27:17.794Z,14.17
2023-03-17T18:29:22.641Z,14.16
2023-03-17T18:31:30.696Z,14.16
2023-03-17T18:33:36.120Z,14.12
2023-03-17T18:35:41.227Z,14.08
2023-03-17T18:37:46.310Z,14.03
2023-03-17T18:40:11.530Z,14.04
2023-03-17T18:42:18.597Z,14.02
2023-03-17T18:44:25.339Z,14.00
2023-03-17T18:46:30.566Z,14.01
2023-03-17T18:48:36.672Z,14.02
2023-03-17T18:50:44.297Z,14.03
2023-03-17T18:52:49.734Z,14.00
2023-03-17T18:54:54.719Z,13.98
2023-03-17T18:56:59.584Z,13.94
2023-03-17T18:59:06.958Z,13.92
2023-03-17T19:01:11.982Z,13.90
2023-03-17T19:03:17.436Z,13.91
2023-03-17T19:05:22.784Z,13.89
2023-03-17T19:07:27.593Z,13.78
2023-03-17T19:09:33.585Z,13.74
2023-03-17T19:11:39.432Z,13.68
2023-03-17T19:13:45.688Z,13.67
2023-03-17T19:15:53.480Z,13.55
2023-03-17T19:17:58.446Z,13.50
2023-03-17T19:20:03.209Z,13.47
2023-03-17T19:22:08.437Z,13.44
2023-03-17T19:24:14.329Z,13.41
2023-03-17T19:26:20.004Z,13.39
2023-03-17T19:28:24.887Z,13.39
2023-03-17T19:30:30.137Z,13.39
2023-03-17T19:32:37.782Z,13.39
2023-03-17T19:34:42.646Z,13.38
2023-03-17T19:36:48.677Z,13.36
2023-03-17T19:38:53.535Z,13.32
2023-03-17T19:40:58.328Z,13.29
2023-03-17T19:43:03.208Z,13.24
2023-03-17T19:45:09.307Z,13.21
2023-03-17T19:47:14.161Z,13.16
2023-03-17T19:49:22.565Z,13.11
2023-03-17T19:51:28.264Z,13.08
2023-03-17T19:53:33.137Z,13.03
2023-03-17T19:55:38.073Z,12.94
2023-03-17T19:57:42.837Z,12.90
2023-03-17T19:59:47.726Z,12.88
2023-03-17T20:01:52.714Z,12.88
2023-03-17T20:03:57.784Z,12.86
2023-03-17T20:06:06.555Z,12.82
2023-03-17T20:08:11.429Z,12.81
2023-03-17T20:10:16.259Z,12.81
2023-03-17T20:12:22.147Z,12.80
2023-03-17T20:14:27.384Z,12.79
2023-03-17T20:16:33.796Z,12.73
2023-03-17T20:18:38.766Z,12.66
2023-03-17T20:20:47.526Z,12.63
2023-03-17T20:22:54.954Z,12.60
2023-03-17T20:24:59.801Z,12.60
2023-03-17T20:27:05.283Z,12.57
2023-03-17T20:29:11.369Z,12.57
2023-03-17T20:31:17.295Z,12.52
2023-03-17T20:33:22.405Z,12.50
2023-03-17T20:35:28.344Z,12.48
2023-03-17T20:37:33.243Z,12.45
2023-03-17T20:39:41.277Z,12.42
2023-03-17T20:41:46.113Z,12.38
2023-03-17T20:43:51.196Z,12.35
2023-03-17T20:46:05.812Z,12.30
2023-03-17T20:48:11.325Z,12.28
2023-03-17T20:50:16.517Z,12.25
2023-03-17T20:52:22.394Z,12.13
2023-03-17T20:54:27.778Z,12.07
2023-03-17T20:56:39.740Z,11.99
2023-03-17T20:58:45.469Z,11.97
2023-03-17T21:00:50.525Z,11.96
2023-03-17T21:02:56.010Z,11.84
2023-03-17T21:05:00.881Z,11.81
2023-03-17T21:07:05.772Z,11.78
2023-03-17T21:09:11.447Z,11.76
2023-03-17T21:11:20.369Z,11.72
2023-03-17T21:13:27.803Z,11.68
2023-03-17T21:15:35.674Z,11.68
2023-03-17T21:17:42.385Z,11.64
2023-03-17T21:19:47.848Z,11.62
2023-03-17T21:21:52.718Z,11.61
2023-03-17T21:23:58.343Z,11.61
2023-03-17T21:26:03.960Z,11.61
2023-03-17T21:28:08.850Z,11.61
2023-03-17T21:30:17.674Z,11.59
2023-03-17T21:32:22.501Z,11.58
2023-03-17T21:34:27.644Z,11.52
2023-03-17T21:36:33.579Z,11.51
2023-03-17T21:38:38.958Z,11.49
2023-03-17T21:40:43.765Z,11.46
2023-03-17T21:42:49.452Z,11.43
2023-03-17T21:44:54.853Z,11.40
2023-03-17T21:47:02.668Z,11.33
2023-03-17T21:49:08.125Z,11.29
2023-03-17T21:51:12.996Z,11.27
2023-03-17T21:53:18.106Z,11.23
2023-03-17T21:55:22.912Z,11.19
2023-03-17T21:57:27.938Z,11.18
2023-03-17T21:59:35.833Z,11.17
2023-03-17T22:01:41.822Z,11.15
2023-03-17T22:03:49.295Z,11.12
2023-03-17T22:05:54.800Z,11.10
2023-03-17T22:07:59.759Z,11.11
2023-03-17T22:10:07.430Z,11.12
2023-03-17T22:12:12.774Z,11.09
2023-03-17T22:14:20.148Z,11.06
2023-03-17T22:16:25.224Z,11.05
2023-03-17T22:18:30.129Z,11.03
2023-03-17T22:20:37.762Z,11.02
2023-03-17T22:22:42.548Z,11.00
2023-03-17T22:24:47.523Z,10.97
2023-03-17T22:26:52.273Z,10.88
2023-03-17T22:28:58.462Z,10.82
2023-03-17T22:31:05.176Z,10.75
2023-03-17T22:33:10.405Z,10.68
2023-03-17T22:35:15.886Z,10.64
2023-03-17T22:37:23.334Z,10.60
2023-03-17T22:39:28.748Z,10.58
2023-03-17T22:41:34.180Z,10.57
2023-03-17T22:43:40.219Z,10.57
2023-03-17T22:45:45.070Z,10.58
2023-03-17T22:47:49.874Z,10.59
2023-03-17T22:49:54.650Z,10.58
2023-03-17T22:51:59.499Z,10.58
2023-03-17T22:54:08.089Z,10.58
2023-03-17T22:56:14.276Z,10.58
2023-03-17T22:58:19.199Z,10.60
2023-03-17T23:00:25.918Z,10.60
2023-03-17T23:02:30.812Z,10.59
2023-03-17T23:04:38.839Z,10.59
2023-03-17T23:06:43.729Z,10.59
2023-03-17T23:08:48.907Z,10.60
2023-03-17T23:10:56.175Z,10.54
2023-03-17T23:13:01.059Z,10.55
2023-03-17T23:15:06.553Z,10.55
2023-03-17T23:17:11.403Z,10.55
2023-03-17T23:19:16.713Z,10.52
2023-03-17T23:21:25.671Z,10.54
2023-03-17T23:23:30.897Z,10.52
2023-03-17T23:25:35.696Z,10.47
2023-03-17T23:27:45.976Z,10.44
2023-03-17T23:29:50.793Z,10.42
2023-03-17T23:31:55.647Z,10.42
2023-03-17T23:34:01.046Z,10.41
2023-03-17T23:36:06.437Z,10.41
2023-03-17T23:38:11.241Z,10.42
2023-03-17T23:40:18.165Z,10.42
2023-03-17T23:42:22.963Z,10.38
2023-03-17T23:44:30.486Z,10.38
2023-03-17T23:46:38.746Z,10.35
2023-03-17T23:48:43.727Z,10.28
2023-03-17T23:50:48.673Z,10.27
2023-03-17T23:52:54.192Z,10.27
2023-03-17T23:54:59.237Z,10.26
2023-03-17T23:57:04.027Z,10.26
2023-03-17T23:59:10.835Z,10.24
